Disclaimer

Please do not use the information listed here in-flight or in-navigation, as they are not provided to us by the airports but are provided by volunteers, so they might be outdated.

Search


Regions


Airport information page

Radio informations:
Tower (TWR) - 128.0 MHz

Airport informations:
Latitude: 50° 21' 04.69" N
Longitude: 080° 14' 03.70" E
Elevation: 761 feet - 232 meters
Operating hours: Remarks
Operating agency: Civil government, landing fees and diplomatic clearance may be required
Timezone: UTC+6(+7DT)
Fuel: Unknown fuel type or whether there is any fuel.

Runway information:
02/20 - 3270 x 253 feet< - >997 x 77 meters
08/26 - 10159 x 145 feet< - >3096 x 44 meters

Recent METARs:
UASS 171200Z 00000MPS 6000 NSC M18/M20 Q1033 R08/82//48 NOSIG RMK QFE753/1005
UASS 171200Z 00000MPS 6000 NSC M18/M20 Q1033 R08/82//48 NOSIG RMK QFE753/1005
UASS 171200Z 00000MPS 6000 NSC M18/M20 Q1033 R08/82//48 NOSIG RMK QFE753/1005

Airport on the map: